sensor_id;sensor_type;location;lat;lon;timestamp;P1;durP1;ratioP1;P2;durP2;ratioP2
58137;SDS011;43955;47.362;18.930;2024-03-23T00:55:20;38.75;;;17.15;;
58137;SDS011;43955;47.362;18.930;2024-03-23T00:57:46;36.38;;;17.17;;
58137;SDS011;43955;47.362;18.930;2024-03-23T01:00:13;47.78;;;17.92;;
58137;SDS011;43955;47.362;18.930;2024-03-23T01:02:44;35.92;;;18.20;;
58137;SDS011;43955;47.362;18.930;2024-03-23T01:05:10;35.40;;;16.17;;
58137;SDS011;43955;47.362;18.930;2024-03-23T01:07:36;35.28;;;17.35;;
58137;SDS011;43955;47.362;18.930;2024-03-23T01:10:03;39.75;;;15.57;;
58137;SDS011;43955;47.362;18.930;2024-03-23T01:12:29;28.70;;;15.55;;
58137;SDS011;43955;47.362;18.930;2024-03-23T01:14:56;32.85;;;18.48;;
58137;SDS011;43955;47.362;18.930;2024-03-23T01:17:22;37.08;;;16.50;;
58137;SDS011;43955;47.362;18.930;2024-03-23T01:19:49;33.85;;;16.48;;
58137;SDS011;43955;47.362;18.930;2024-03-23T01:22:15;35.20;;;16.60;;
58137;SDS011;43955;47.362;18.930;2024-03-23T01:24:43;39.38;;;17.92;;
58137;SDS011;43955;47.362;18.930;2024-03-23T01:27:09;33.67;;;16.62;;
58137;SDS011;43955;47.362;18.930;2024-03-23T01:29:36;35.20;;;16.60;;
58137;SDS011;43955;47.362;18.930;2024-03-23T01:32:02;35.85;;;17.25;;
58137;SDS011;43955;47.362;18.930;2024-03-23T01:34:29;33.72;;;16.52;;
58137;SDS011;43955;47.362;18.930;2024-03-23T01:36:56;33.92;;;16.58;;
58137;SDS011;43955;47.362;18.930;2024-03-23T01:39:22;32.90;;;16.27;;
58137;SDS011;43955;47.362;18.930;2024-03-23T01:41:48;32.53;;;16.33;;
58137;SDS011;43955;47.362;18.930;2024-03-23T01:44:15;39.35;;;16.87;;
58137;SDS011;43955;47.362;18.930;2024-03-23T01:46:42;53.97;;;17.15;;
58137;SDS011;43955;47.362;18.930;2024-03-23T01:49:09;43.67;;;16.33;;
58137;SDS011;43955;47.362;18.930;2024-03-23T01:51:36;44.13;;;18.95;;
58137;SDS011;43955;47.362;18.930;2024-03-23T01:54:03;34.45;;;15.93;;
58137;SDS011;43955;47.362;18.930;2024-03-23T01:56:32;33.42;;;15.95;;
58137;SDS011;43955;47.362;18.930;2024-03-23T01:59:01;29.73;;;14.48;;
58137;SDS011;43955;47.362;18.930;2024-03-23T02:01:29;32.50;;;16.27;;
58137;SDS011;43955;47.362;18.930;2024-03-23T02:03:57;31.58;;;16.83;;
58137;SDS011;43955;47.362;18.930;2024-03-23T02:06:25;34.90;;;17.02;;
58137;SDS011;43955;47.362;18.930;2024-03-23T02:08:52;35.22;;;14.98;;
58137;SDS011;43955;47.362;18.930;2024-03-23T02:11:20;28.90;;;15.50;;
58137;SDS011;43955;47.362;18.930;2024-03-23T02:13:46;31.65;;;17.25;;
58137;SDS011;43955;47.362;18.930;2024-03-23T02:16:13;33.42;;;16.37;;
58137;SDS011;43955;47.362;18.930;2024-03-23T02:18:39;39.25;;;17.52;;
58137;SDS011;43955;47.362;18.930;2024-03-23T02:21:06;35.45;;;17.95;;
58137;SDS011;43955;47.362;18.930;2024-03-23T02:23:32;35.08;;;17.70;;
58137;SDS011;43955;47.362;18.930;2024-03-23T02:25:59;34.33;;;16.77;;
58137;SDS011;43955;47.362;18.930;2024-03-23T02:28:25;32.45;;;16.75;;
58137;SDS011;43955;47.362;18.930;2024-03-23T02:30:52;36.17;;;17.50;;
58137;SDS011;43955;47.362;18.930;2024-03-23T02:33:18;36.67;;;17.65;;
58137;SDS011;43955;47.362;18.930;2024-03-23T02:35:45;34.35;;;17.12;;
58137;SDS011;43955;47.362;18.930;2024-03-23T02:38:12;33.35;;;17.45;;
58137;SDS011;43955;47.362;18.930;2024-03-23T02:40:39;31.65;;;18.08;;
58137;SDS011;43955;47.362;18.930;2024-03-23T02:43:05;33.70;;;16.58;;
58137;SDS011;43955;47.362;18.930;2024-03-23T02:45:31;36.58;;;18.33;;
58137;SDS011;43955;47.362;18.930;2024-03-23T02:48:00;34.78;;;18.35;;
58137;SDS011;43955;47.362;18.930;2024-03-23T02:50:26;33.03;;;17.98;;
58137;SDS011;43955;47.362;18.930;2024-03-23T02:52:53;30.88;;;16.10;;
58137;SDS011;43955;47.362;18.930;2024-03-23T02:55:19;39.33;;;17.42;;
58137;SDS011;43955;47.362;18.930;2024-03-23T02:57:46;29.75;;;16.95;;
58137;SDS011;43955;47.362;18.930;2024-03-23T03:00:12;31.17;;;16.95;;
58137;SDS011;43955;47.362;18.930;2024-03-23T03:02:41;32.60;;;17.27;;
58137;SDS011;43955;47.362;18.930;2024-03-23T03:05:07;32.75;;;17.35;;
58137;SDS011;43955;47.362;18.930;2024-03-23T03:07:34;38.05;;;18.10;;
58137;SDS011;43955;47.362;18.930;2024-03-23T03:10:01;37.03;;;20.08;;
58137;SDS011;43955;47.362;18.930;2024-03-23T03:12:27;44.80;;;21.85;;
58137;SDS011;43955;47.362;18.930;2024-03-23T03:14:53;55.08;;;25.05;;
58137;SDS011;43955;47.362;18.930;2024-03-23T03:17:20;50.33;;;24.23;;
58137;SDS011;43955;47.362;18.930;2024-03-23T03:19:49;42.28;;;21.45;;
58137;SDS011;43955;47.362;18.930;2024-03-23T03:22:15;92.20;;;36.65;;
58137;SDS011;43955;47.362;18.930;2024-03-23T03:24:42;85.32;;;35.30;;
58137;SDS011;43955;47.362;18.930;2024-03-23T03:27:08;62.50;;;26.20;;
58137;SDS011;43955;47.362;18.930;2024-03-23T03:29:35;49.92;;;23.90;;
58137;SDS011;43955;47.362;18.930;2024-03-23T03:32:04;43.78;;;21.02;;
58137;SDS011;43955;47.362;18.930;2024-03-23T03:34:30;47.17;;;23.05;;
58137;SDS011;43955;47.362;18.930;2024-03-23T03:36:56;36.90;;;18.42;;
58137;SDS011;43955;47.362;18.930;2024-03-23T03:39:26;38.25;;;18.83;;
58137;SDS011;43955;47.362;18.930;2024-03-23T03:41:57;33.30;;;17.90;;
58137;SDS011;43955;47.362;18.930;2024-03-23T03:44:23;44.20;;;19.35;;
58137;SDS011;43955;47.362;18.930;2024-03-23T03:46:49;36.55;;;20.20;;
58137;SDS011;43955;47.362;18.930;2024-03-23T03:49:17;33.83;;;18.95;;
58137;SDS011;43955;47.362;18.930;2024-03-23T03:51:43;36.65;;;18.33;;
58137;SDS011;43955;47.362;18.930;2024-03-23T03:54:10;34.90;;;18.90;;
58137;SDS011;43955;47.362;18.930;2024-03-23T03:56:36;36.58;;;19.33;;
58137;SDS011;43955;47.362;18.930;2024-03-23T03:59:03;36.22;;;18.90;;
58137;SDS011;43955;47.362;18.930;2024-03-23T04:01:29;41.42;;;19.75;;
58137;SDS011;43955;47.362;18.930;2024-03-23T04:03:55;36.75;;;19.52;;
58137;SDS011;43955;47.362;18.930;2024-03-23T04:06:21;36.90;;;18.95;;
58137;SDS011;43955;47.362;18.930;2024-03-23T04:08:47;38.53;;;19.80;;
58137;SDS011;43955;47.362;18.930;2024-03-23T04:11:14;34.88;;;19.02;;
58137;SDS011;43955;47.362;18.930;2024-03-23T04:13:40;36.70;;;19.62;;
58137;SDS011;43955;47.362;18.930;2024-03-23T04:16:07;33.75;;;17.98;;
58137;SDS011;43955;47.362;18.930;2024-03-23T04:18:36;39.50;;;19.15;;
58137;SDS011;43955;47.362;18.930;2024-03-23T04:21:02;33.08;;;18.85;;
58137;SDS011;43955;47.362;18.930;2024-03-23T04:23:29;38.30;;;18.27;;
58137;SDS011;43955;47.362;18.930;2024-03-23T04:25:55;32.95;;;19.58;;
58137;SDS011;43955;47.362;18.930;2024-03-23T04:28:21;34.45;;;18.67;;
58137;SDS011;43955;47.362;18.930;2024-03-23T04:30:48;34.97;;;17.65;;
58137;SDS011;43955;47.362;18.930;2024-03-23T04:33:15;35.90;;;20.17;;
58137;SDS011;43955;47.362;18.930;2024-03-23T04:35:42;43.10;;;20.58;;
58137;SDS011;43955;47.362;18.930;2024-03-23T04:38:08;49.13;;;20.55;;
58137;SDS011;43955;47.362;18.930;2024-03-23T04:40:35;176.63;;;31.87;;
58137;SDS011;43955;47.362;18.930;2024-03-23T04:43:02;45.30;;;23.00;;
58137;SDS011;43955;47.362;18.930;2024-03-23T04:45:30;41.60;;;19.92;;
58137;SDS011;43955;47.362;18.930;2024-03-23T04:47:58;34.72;;;18.80;;
58137;SDS011;43955;47.362;18.930;2024-03-23T04:50:24;33.05;;;18.02;;
58137;SDS011;43955;47.362;18.930;2024-03-23T04:52:52;41.85;;;21.40;;
58137;SDS011;43955;47.362;18.930;2024-03-23T04:55:21;38.38;;;18.73;;
58137;SDS011;43955;47.362;18.930;2024-03-23T04:57:49;37.42;;;19.42;;
58137;SDS011;43955;47.362;18.930;2024-03-23T05:00:15;33.38;;;17.10;;
58137;SDS011;43955;47.362;18.930;2024-03-23T05:02:45;34.38;;;17.95;;
58137;SDS011;43955;47.362;18.930;2024-03-23T05:05:13;34.03;;;18.42;;
58137;SDS011;43955;47.362;18.930;2024-03-23T05:07:39;35.85;;;20.02;;
58137;SDS011;43955;47.362;18.930;2024-03-23T05:10:09;37.08;;;18.77;;
58137;SDS011;43955;47.362;18.930;2024-03-23T05:12:37;37.42;;;19.00;;
58137;SDS011;43955;47.362;18.930;2024-03-23T05:15:04;36.88;;;19.00;;
58137;SDS011;43955;47.362;18.930;2024-03-23T05:17:33;41.30;;;19.23;;
58137;SDS011;43955;47.362;18.930;2024-03-23T05:20:00;74.35;;;22.13;;
58137;SDS011;43955;47.362;18.930;2024-03-23T05:22:27;64.25;;;19.52;;
58137;SDS011;43955;47.362;18.930;2024-03-23T05:24:53;49.88;;;22.35;;
58137;SDS011;43955;47.362;18.930;2024-03-23T05:27:19;69.15;;;24.87;;
58137;SDS011;43955;47.362;18.930;2024-03-23T05:29:46;65.20;;;24.87;;
58137;SDS011;43955;47.362;18.930;2024-03-23T05:32:16;63.17;;;26.52;;
58137;SDS011;43955;47.362;18.930;2024-03-23T05:34:42;62.78;;;24.50;;
58137;SDS011;43955;47.362;18.930;2024-03-23T05:37:09;47.97;;;24.77;;
58137;SDS011;43955;47.362;18.930;2024-03-23T05:39:36;52.40;;;22.58;;
58137;SDS011;43955;47.362;18.930;2024-03-23T05:42:02;48.00;;;22.52;;
58137;SDS011;43955;47.362;18.930;2024-03-23T05:44:28;52.17;;;26.65;;
58137;SDS011;43955;47.362;18.930;2024-03-23T05:46:54;77.53;;;31.52;;
58137;SDS011;43955;47.362;18.930;2024-03-23T05:49:20;77.75;;;31.23;;
58137;SDS011;43955;47.362;18.930;2024-03-23T05:51:46;97.65;;;38.83;;
58137;SDS011;43955;47.362;18.930;2024-03-23T05:54:13;65.93;;;30.05;;
58137;SDS011;43955;47.362;18.930;2024-03-23T05:56:40;113.15;;;49.28;;
58137;SDS011;43955;47.362;18.930;2024-03-23T05:59:06;71.55;;;32.63;;
58137;SDS011;43955;47.362;18.930;2024-03-23T06:01:33;100.38;;;36.67;;
58137;SDS011;43955;47.362;18.930;2024-03-23T06:04:00;76.70;;;29.77;;
58137;SDS011;43955;47.362;18.930;2024-03-23T06:06:27;100.78;;;41.55;;
58137;SDS011;43955;47.362;18.930;2024-03-23T06:08:55;61.22;;;27.17;;
58137;SDS011;43955;47.362;18.930;2024-03-23T06:11:22;53.00;;;25.35;;
58137;SDS011;43955;47.362;18.930;2024-03-23T06:13:48;61.92;;;27.17;;
58137;SDS011;43955;47.362;18.930;2024-03-23T06:16:14;51.47;;;23.92;;
58137;SDS011;43955;47.362;18.930;2024-03-23T06:18:40;50.85;;;23.40;;
58137;SDS011;43955;47.362;18.930;2024-03-23T06:21:12;41.88;;;21.67;;
58137;SDS011;43955;47.362;18.930;2024-03-23T06:23:39;46.42;;;21.85;;
58137;SDS011;43955;47.362;18.930;2024-03-23T06:26:06;41.00;;;20.90;;
58137;SDS011;43955;47.362;18.930;2024-03-23T06:28:32;45.60;;;20.80;;
58137;SDS011;43955;47.362;18.930;2024-03-23T06:30:58;36.97;;;21.48;;
58137;SDS011;43955;47.362;18.930;2024-03-23T06:33:25;38.17;;;21.95;;
58137;SDS011;43955;47.362;18.930;2024-03-23T06:35:51;40.50;;;21.23;;
58137;SDS011;43955;47.362;18.930;2024-03-23T06:38:18;38.72;;;21.37;;
58137;SDS011;43955;47.362;18.930;2024-03-23T06:40:44;42.15;;;20.37;;
58137;SDS011;43955;47.362;18.930;2024-03-23T06:43:16;48.47;;;22.75;;
58137;SDS011;43955;47.362;18.930;2024-03-23T06:45:42;39.65;;;19.58;;
58137;SDS011;43955;47.362;18.930;2024-03-23T06:48:10;37.78;;;18.15;;
58137;SDS011;43955;47.362;18.930;2024-03-23T06:50:36;34.88;;;19.23;;
58137;SDS011;43955;47.362;18.930;2024-03-23T06:53:03;35.67;;;20.08;;
58137;SDS011;43955;47.362;18.930;2024-03-23T06:55:31;34.40;;;18.90;;
58137;SDS011;43955;47.362;18.930;2024-03-23T06:57:57;34.60;;;17.62;;
58137;SDS011;43955;47.362;18.930;2024-03-23T07:00:23;32.70;;;17.85;;
58137;SDS011;43955;47.362;18.930;2024-03-23T07:02:51;34.40;;;18.45;;
58137;SDS011;43955;47.362;18.930;2024-03-23T07:05:17;39.42;;;17.23;;
58137;SDS011;43955;47.362;18.930;2024-03-23T07:07:43;29.83;;;16.55;;
58137;SDS011;43955;47.362;18.930;2024-03-23T07:10:10;27.23;;;15.60;;
58137;SDS011;43955;47.362;18.930;2024-03-23T07:12:51;30.30;;;16.75;;
58137;SDS011;43955;47.362;18.930;2024-03-23T07:15:18;32.80;;;17.40;;
58137;SDS011;43955;47.362;18.930;2024-03-23T07:17:46;31.40;;;16.00;;
58137;SDS011;43955;47.362;18.930;2024-03-23T07:20:13;29.90;;;15.60;;
58137;SDS011;43955;47.362;18.930;2024-03-23T07:22:41;27.83;;;16.55;;
58137;SDS011;43955;47.362;18.930;2024-03-23T07:25:09;31.65;;;17.15;;
58137;SDS011;43955;47.362;18.930;2024-03-23T07:27:36;61.30;;;19.67;;
58137;SDS011;43955;47.362;18.930;2024-03-23T07:30:03;33.33;;;17.95;;
58137;SDS011;43955;47.362;18.930;2024-03-23T07:32:29;38.38;;;16.80;;
58137;SDS011;43955;47.362;18.930;2024-03-23T07:34:55;27.67;;;17.02;;
58137;SDS011;43955;47.362;18.930;2024-03-23T07:37:22;30.50;;;18.02;;
58137;SDS011;43955;47.362;18.930;2024-03-23T07:39:48;31.83;;;17.48;;
58137;SDS011;43955;47.362;18.930;2024-03-23T07:42:14;30.23;;;16.62;;
58137;SDS011;43955;47.362;18.930;2024-03-23T07:44:41;29.48;;;16.17;;
58137;SDS011;43955;47.362;18.930;2024-03-23T07:47:07;30.98;;;16.02;;
58137;SDS011;43955;47.362;18.930;2024-03-23T07:49:35;29.00;;;15.80;;
58137;SDS011;43955;47.362;18.930;2024-03-23T07:52:01;31.75;;;17.27;;
58137;SDS011;43955;47.362;18.930;2024-03-23T07:54:28;29.37;;;16.70;;
58137;SDS011;43955;47.362;18.930;2024-03-23T07:56:54;30.37;;;17.12;;
58137;SDS011;43955;47.362;18.930;2024-03-23T07:59:20;37.38;;;16.75;;
58137;SDS011;43955;47.362;18.930;2024-03-23T08:01:47;29.80;;;15.45;;
58137;SDS011;43955;47.362;18.930;2024-03-23T08:04:13;36.15;;;17.85;;
58137;SDS011;43955;47.362;18.930;2024-03-23T08:06:39;32.00;;;17.05;;
58137;SDS011;43955;47.362;18.930;2024-03-23T08:09:09;28.75;;;16.30;;
58137;SDS011;43955;47.362;18.930;2024-03-23T08:11:36;72.95;;;17.75;;
58137;SDS011;43955;47.362;18.930;2024-03-23T08:14:03;28.52;;;14.23;;
58137;SDS011;43955;47.362;18.930;2024-03-23T08:16:30;26.30;;;12.68;;
58137;SDS011;43955;47.362;18.930;2024-03-23T08:18:56;21.17;;;11.57;;
58137;SDS011;43955;47.362;18.930;2024-03-23T08:21:23;22.80;;;9.90;;
58137;SDS011;43955;47.362;18.930;2024-03-23T08:23:50;15.57;;;9.32;;
58137;SDS011;43955;47.362;18.930;2024-03-23T08:26:18;28.12;;;11.35;;
58137;SDS011;43955;47.362;18.930;2024-03-23T08:28:45;17.17;;;10.30;;
58137;SDS011;43955;47.362;18.930;2024-03-23T08:31:12;18.92;;;9.80;;
58137;SDS011;43955;47.362;18.930;2024-03-23T08:33:39;17.55;;;9.45;;
58137;SDS011;43955;47.362;18.930;2024-03-23T08:36:06;14.13;;;9.55;;
58137;SDS011;43955;47.362;18.930;2024-03-23T08:38:33;20.15;;;10.52;;
58137;SDS011;43955;47.362;18.930;2024-03-23T08:41:01;15.93;;;8.50;;
58137;SDS011;43955;47.362;18.930;2024-03-23T08:43:28;11.23;;;7.40;;
58137;SDS011;43955;47.362;18.930;2024-03-23T08:46:03;13.30;;;7.75;;
58137;SDS011;43955;47.362;18.930;2024-03-23T08:48:42;10.60;;;7.00;;
58137;SDS011;43955;47.362;18.930;2024-03-23T08:51:16;19.40;;;7.90;;
58137;SDS011;43955;47.362;18.930;2024-03-23T08:53:42;15.45;;;8.23;;
58137;SDS011;43955;47.362;18.930;2024-03-23T08:56:16;16.30;;;7.50;;
58137;SDS011;43955;47.362;18.930;2024-03-23T08:58:43;12.57;;;7.03;;
58137;SDS011;43955;47.362;18.930;2024-03-23T09:01:10;15.43;;;8.20;;
58137;SDS011;43955;47.362;18.930;2024-03-23T09:03:38;19.75;;;7.47;;
58137;SDS011;43955;47.362;18.930;2024-03-23T09:06:08;9.95;;;6.05;;
58137;SDS011;43955;47.362;18.930;2024-03-23T09:08:35;13.35;;;6.97;;
58137;SDS011;43955;47.362;18.930;2024-03-23T09:11:06;12.23;;;6.35;;
58137;SDS011;43955;47.362;18.930;2024-03-23T09:13:33;35.42;;;22.62;;
58137;SDS011;43955;47.362;18.930;2024-03-23T09:15:59;15.27;;;5.82;;
58137;SDS011;43955;47.362;18.930;2024-03-23T09:18:26;30.80;;;6.55;;
58137;SDS011;43955;47.362;18.930;2024-03-23T09:20:54;13.82;;;5.62;;
58137;SDS011;43955;47.362;18.930;2024-03-23T09:23:20;12.40;;;5.70;;
58137;SDS011;43955;47.362;18.930;2024-03-23T09:25:47;17.58;;;5.62;;
58137;SDS011;43955;47.362;18.930;2024-03-23T09:28:13;11.57;;;5.47;;
58137;SDS011;43955;47.362;18.930;2024-03-23T09:30:39;16.60;;;6.35;;
58137;SDS011;43955;47.362;18.930;2024-03-23T09:33:08;14.68;;;6.60;;
58137;SDS011;43955;47.362;18.930;2024-03-23T09:35:37;25.02;;;6.25;;
58137;SDS011;43955;47.362;18.930;2024-03-23T09:38:08;10.57;;;5.60;;
58137;SDS011;43955;47.362;18.930;2024-03-23T09:40:42;17.08;;;6.72;;
58137;SDS011;43955;47.362;18.930;2024-03-23T09:43:09;12.70;;;6.22;;
58137;SDS011;43955;47.362;18.930;2024-03-23T09:45:39;9.80;;;5.60;;
58137;SDS011;43955;47.362;18.930;2024-03-23T09:48:08;15.73;;;6.40;;
58137;SDS011;43955;47.362;18.930;2024-03-23T09:53:07;19.08;;;6.30;;
58137;SDS011;43955;47.362;18.930;2024-03-23T09:55:34;21.92;;;6.72;;
58137;SDS011;43955;47.362;18.930;2024-03-23T09:58:03;15.55;;;6.03;;
58137;SDS011;43955;47.362;18.930;2024-03-23T10:00:31;15.73;;;5.25;;
58137;SDS011;43955;47.362;18.930;2024-03-23T10:02:58;14.73;;;5.15;;
58137;SDS011;43955;47.362;18.930;2024-03-23T10:05:28;11.80;;;6.03;;
58137;SDS011;43955;47.362;18.930;2024-03-23T10:07:56;11.43;;;5.20;;
58137;SDS011;43955;47.362;18.930;2024-03-23T10:10:24;16.35;;;5.28;;
58137;SDS011;43955;47.362;18.930;2024-03-23T10:12:51;23.90;;;10.70;;
58137;SDS011;43955;47.362;18.930;2024-03-23T10:15:21;7.90;;;4.87;;
58137;SDS011;43955;47.362;18.930;2024-03-23T10:17:48;27.58;;;6.10;;
58137;SDS011;43955;47.362;18.930;2024-03-23T10:20:21;9.00;;;4.43;;
58137;SDS011;43955;47.362;18.930;2024-03-23T10:22:52;13.62;;;6.43;;
58137;SDS011;43955;47.362;18.930;2024-03-23T10:25:22;7.43;;;4.85;;
58137;SDS011;43955;47.362;18.930;2024-03-23T10:28:00;12.15;;;5.43;;
58137;SDS011;43955;47.362;18.930;2024-03-23T10:30:41;10.77;;;4.90;;
58137;SDS011;43955;47.362;18.930;2024-03-23T10:33:08;6.45;;;4.57;;
58137;SDS011;43955;47.362;18.930;2024-03-23T10:35:37;6.35;;;3.53;;
58137;SDS011;43955;47.362;18.930;2024-03-23T10:38:04;9.57;;;3.97;;
58137;SDS011;43955;47.362;18.930;2024-03-23T10:40:35;19.15;;;5.05;;
58137;SDS011;43955;47.362;18.930;2024-03-23T10:43:02;9.82;;;3.80;;
58137;SDS011;43955;47.362;18.930;2024-03-23T10:45:31;7.60;;;3.62;;
58137;SDS011;43955;47.362;18.930;2024-03-23T10:47:57;18.02;;;5.37;;
58137;SDS011;43955;47.362;18.930;2024-03-23T10:50:24;7.05;;;2.80;;
58137;SDS011;43955;47.362;18.930;2024-03-23T10:52:50;26.50;;;5.00;;
58137;SDS011;43955;47.362;18.930;2024-03-23T10:55:19;7.97;;;4.07;;
58137;SDS011;43955;47.362;18.930;2024-03-23T10:57:52;7.35;;;3.95;;
58137;SDS011;43955;47.362;18.930;2024-03-23T11:00:20;9.57;;;3.90;;
58137;SDS011;43955;47.362;18.930;2024-03-23T11:02:48;24.42;;;4.78;;
58137;SDS011;43955;47.362;18.930;2024-03-23T11:07:51;8.82;;;3.67;;
58137;SDS011;43955;47.362;18.930;2024-03-23T11:10:35;6.07;;;3.65;;
58137;SDS011;43955;47.362;18.930;2024-03-23T11:15:47;10.27;;;3.60;;
58137;SDS011;43955;47.362;18.930;2024-03-23T11:18:13;6.65;;;3.67;;
58137;SDS011;43955;47.362;18.930;2024-03-23T11:20:46;13.57;;;3.85;;
58137;SDS011;43955;47.362;18.930;2024-03-23T11:23:30;8.38;;;3.85;;
58137;SDS011;43955;47.362;18.930;2024-03-23T11:28:22;57.50;;;7.18;;
58137;SDS011;43955;47.362;18.930;2024-03-23T11:30:48;22.20;;;4.40;;
58137;SDS011;43955;47.362;18.930;2024-03-23T11:33:15;19.23;;;4.22;;
58137;SDS011;43955;47.362;18.930;2024-03-23T11:35:41;10.50;;;3.37;;
58137;SDS011;43955;47.362;18.930;2024-03-23T11:40:43;10.65;;;3.00;;
58137;SDS011;43955;47.362;18.930;2024-03-23T11:43:15;7.75;;;3.37;;
58137;SDS011;43955;47.362;18.930;2024-03-23T11:45:49;14.20;;;6.18;;
58137;SDS011;43955;47.362;18.930;2024-03-23T11:48:22;8.68;;;3.03;;
58137;SDS011;43955;47.362;18.930;2024-03-23T11:50:49;12.70;;;4.45;;
58137;SDS011;43955;47.362;18.930;2024-03-23T11:53:17;112.30;;;11.23;;
58137;SDS011;43955;47.362;18.930;2024-03-23T11:58:11;13.43;;;3.53;;
58137;SDS011;43955;47.362;18.930;2024-03-23T12:00:38;98.45;;;11.18;;
58137;SDS011;43955;47.362;18.930;2024-03-23T12:03:04;7.28;;;2.90;;
58137;SDS011;43955;47.362;18.930;2024-03-23T12:05:31;9.80;;;2.90;;
58137;SDS011;43955;47.362;18.930;2024-03-23T12:10:44;15.05;;;3.70;;
58137;SDS011;43955;47.362;18.930;2024-03-23T12:13:20;12.07;;;3.67;;
58137;SDS011;43955;47.362;18.930;2024-03-23T12:15:50;7.97;;;3.30;;
58137;SDS011;43955;47.362;18.930;2024-03-23T12:18:17;22.65;;;5.75;;
58137;SDS011;43955;47.362;18.930;2024-03-23T12:20:43;10.88;;;4.32;;
58137;SDS011;43955;47.362;18.930;2024-03-23T12:23:11;18.40;;;4.18;;
58137;SDS011;43955;47.362;18.930;2024-03-23T12:25:39;12.80;;;3.50;;
58137;SDS011;43955;47.362;18.930;2024-03-23T12:28:05;6.20;;;3.42;;
58137;SDS011;43955;47.362;18.930;2024-03-23T12:30:39;14.98;;;3.83;;
58137;SDS011;43955;47.362;18.930;2024-03-23T12:33:05;6.87;;;2.78;;
58137;SDS011;43955;47.362;18.930;2024-03-23T12:35:32;4.90;;;2.62;;
58137;SDS011;43955;47.362;18.930;2024-03-23T12:38:01;8.60;;;2.47;;
58137;SDS011;43955;47.362;18.930;2024-03-23T12:40:28;4.30;;;2.75;;
58137;SDS011;43955;47.362;18.930;2024-03-23T12:42:54;3.67;;;2.42;;
58137;SDS011;43955;47.362;18.930;2024-03-23T12:45:23;6.95;;;2.75;;
58137;SDS011;43955;47.362;18.930;2024-03-23T12:47:49;5.85;;;2.85;;
58137;SDS011;43955;47.362;18.930;2024-03-23T12:50:18;11.73;;;3.70;;
58137;SDS011;43955;47.362;18.930;2024-03-23T12:52:44;7.93;;;2.25;;
58137;SDS011;43955;47.362;18.930;2024-03-23T12:55:10;3.80;;;2.53;;
58137;SDS011;43955;47.362;18.930;2024-03-23T12:57:36;12.95;;;2.80;;
58137;SDS011;43955;47.362;18.930;2024-03-23T13:00:03;3.62;;;2.17;;
58137;SDS011;43955;47.362;18.930;2024-03-23T13:02:31;4.25;;;2.30;;
58137;SDS011;43955;47.362;18.930;2024-03-23T13:04:59;8.45;;;2.22;;
58137;SDS011;43955;47.362;18.930;2024-03-23T13:07:26;6.53;;;2.20;;
58137;SDS011;43955;47.362;18.930;2024-03-23T13:09:52;3.53;;;2.35;;
58137;SDS011;43955;47.362;18.930;2024-03-23T13:12:22;6.55;;;2.65;;
58137;SDS011;43955;47.362;18.930;2024-03-23T13:14:48;3.50;;;2.30;;
58137;SDS011;43955;47.362;18.930;2024-03-23T13:17:16;4.57;;;2.70;;
58137;SDS011;43955;47.362;18.930;2024-03-23T13:20:00;7.60;;;3.42;;
58137;SDS011;43955;47.362;18.930;2024-03-23T13:22:28;6.72;;;4.00;;
58137;SDS011;43955;47.362;18.930;2024-03-23T13:24:54;5.35;;;3.12;;
58137;SDS011;43955;47.362;18.930;2024-03-23T13:27:20;4.53;;;2.50;;
58137;SDS011;43955;47.362;18.930;2024-03-23T13:29:47;12.48;;;4.15;;
58137;SDS011;43955;47.362;18.930;2024-03-23T13:32:13;4.53;;;2.95;;
58137;SDS011;43955;47.362;18.930;2024-03-23T13:34:39;12.37;;;7.93;;
58137;SDS011;43955;47.362;18.930;2024-03-23T13:37:06;9.57;;;5.50;;
58137;SDS011;43955;47.362;18.930;2024-03-23T13:39:33;9.52;;;3.42;;
58137;SDS011;43955;47.362;18.930;2024-03-23T13:41:59;12.05;;;3.72;;
58137;SDS011;43955;47.362;18.930;2024-03-23T13:44:26;20.73;;;4.85;;
58137;SDS011;43955;47.362;18.930;2024-03-23T13:46:52;8.45;;;3.50;;
58137;SDS011;43955;47.362;18.930;2024-03-23T13:49:28;8.88;;;3.47;;
58137;SDS011;43955;47.362;18.930;2024-03-23T13:51:56;4.57;;;2.10;;
58137;SDS011;43955;47.362;18.930;2024-03-23T13:54:25;9.85;;;2.55;;
58137;SDS011;43955;47.362;18.930;2024-03-23T13:56:52;6.10;;;2.70;;
58137;SDS011;43955;47.362;18.930;2024-03-23T13:59:19;4.75;;;2.37;;
58137;SDS011;43955;47.362;18.930;2024-03-23T14:01:46;5.22;;;2.17;;
58137;SDS011;43955;47.362;18.930;2024-03-23T14:04:13;10.05;;;5.22;;
58137;SDS011;43955;47.362;18.930;2024-03-23T14:06:39;23.40;;;4.72;;
58137;SDS011;43955;47.362;18.930;2024-03-23T14:09:08;7.75;;;4.10;;
58137;SDS011;43955;47.362;18.930;2024-03-23T14:11:38;10.88;;;3.30;;
58137;SDS011;43955;47.362;18.930;2024-03-23T14:14:06;19.80;;;4.03;;
58137;SDS011;43955;47.362;18.930;2024-03-23T14:16:34;4.78;;;2.58;;
58137;SDS011;43955;47.362;18.930;2024-03-23T14:19:03;9.45;;;2.55;;
58137;SDS011;43955;47.362;18.930;2024-03-23T14:21:33;6.32;;;2.70;;
58137;SDS011;43955;47.362;18.930;2024-03-23T14:24:02;13.15;;;3.28;;
58137;SDS011;43955;47.362;18.930;2024-03-23T14:26:29;6.43;;;3.67;;
58137;SDS011;43955;47.362;18.930;2024-03-23T14:28:55;8.07;;;3.20;;
58137;SDS011;43955;47.362;18.930;2024-03-23T14:31:22;5.78;;;3.17;;
58137;SDS011;43955;47.362;18.930;2024-03-23T14:33:48;11.70;;;3.40;;
58137;SDS011;43955;47.362;18.930;2024-03-23T14:36:17;7.93;;;3.28;;
58137;SDS011;43955;47.362;18.930;2024-03-23T14:38:47;72.60;;;7.37;;
58137;SDS011;43955;47.362;18.930;2024-03-23T14:41:16;12.05;;;3.70;;
58137;SDS011;43955;47.362;18.930;2024-03-23T14:43:42;10.32;;;3.58;;
58137;SDS011;43955;47.362;18.930;2024-03-23T14:46:14;9.70;;;3.83;;
58137;SDS011;43955;47.362;18.930;2024-03-23T14:48:42;11.05;;;5.03;;
58137;SDS011;43955;47.362;18.930;2024-03-23T14:51:14;48.70;;;7.97;;
58137;SDS011;43955;47.362;18.930;2024-03-23T14:53:45;23.40;;;7.57;;
58137;SDS011;43955;47.362;18.930;2024-03-23T14:56:11;13.07;;;5.50;;
58137;SDS011;43955;47.362;18.930;2024-03-23T14:58:41;14.27;;;4.62;;
58137;SDS011;43955;47.362;18.930;2024-03-23T15:01:08;8.00;;;4.10;;
58137;SDS011;43955;47.362;18.930;2024-03-23T15:03:37;8.45;;;3.90;;
58137;SDS011;43955;47.362;18.930;2024-03-23T15:06:08;6.97;;;3.28;;
58137;SDS011;43955;47.362;18.930;2024-03-23T15:08:37;10.13;;;3.92;;
58137;SDS011;43955;47.362;18.930;2024-03-23T15:11:04;19.15;;;4.75;;
58137;SDS011;43955;47.362;18.930;2024-03-23T15:13:36;11.70;;;4.15;;
58137;SDS011;43955;47.362;18.930;2024-03-23T15:16:03;8.43;;;4.40;;
58137;SDS011;43955;47.362;18.930;2024-03-23T15:18:31;12.00;;;4.70;;
58137;SDS011;43955;47.362;18.930;2024-03-23T15:20:59;7.95;;;4.70;;
58137;SDS011;43955;47.362;18.930;2024-03-23T15:23:29;8.10;;;4.07;;
58137;SDS011;43955;47.362;18.930;2024-03-23T15:25:56;9.23;;;4.80;;
58137;SDS011;43955;47.362;18.930;2024-03-23T15:28:26;6.35;;;4.40;;
58137;SDS011;43955;47.362;18.930;2024-03-23T15:31:07;9.55;;;6.55;;